Time;durP1;ratioP1;P1;durP2;ratioP2;P2;SDS_P1;SDS_P2;PMS_P1;PMS_P2;Temp;Humidity;BMP_temperature;BMP_pressure;BME280_temperature;BME280_humidity;BME280_pressure;Samples;Min_cycle;Max_cycle;Signal;HPM_P1;HPM_P2
2022/12/05 00:00:59;;;;;;;25.75;15.15;;;;;;;1.63;91.25;99724.58;1724972;83;20994;-46
2022/12/05 00:03:25;;;;;;;31.55;18.32;;;;;;;1.41;91.54;99703.23;1724811;83;20995;-43
2022/12/05 00:05:51;;;;;;;34.20;18.87;;;;;;;1.44;91.97;99713.13;1724887;82;20995;-40
2022/12/05 00:08:17;;;;;;;31.30;17.55;;;;;;;1.47;92.08;99715.66;1724884;83;21477;-42
2022/12/05 00:10:42;;;;;;;30.30;17.23;;;;;;;1.44;92.21;99712.28;1724895;82;21033;-40
2022/12/05 00:13:09;;;;;;;31.27;17.50;;;;;;;1.45;92.17;99712.23;1724754;83;21011;-41
2022/12/05 00:15:38;;;;;;;27.55;15.68;;;;;;;1.48;91.97;99706.18;1725089;83;20999;-39
2022/12/05 00:18:04;;;;;;;27.77;16.77;;;;;;;1.51;91.91;99703.53;1724768;83;21480;-42
2022/12/05 00:20:30;;;;;;;30.65;16.90;;;;;;;1.38;92.04;99705.41;1724592;83;21180;-36
2022/12/05 00:22:55;;;;;;;24.30;15.18;;;;;;;1.46;91.96;99707.94;1724910;83;21484;-47
2022/12/05 00:25:21;;;;;;;27.80;16.97;;;;;;;1.46;91.83;99704.90;1724938;82;20975;-43
2022/12/05 00:27:47;;;;;;;27.87;15.68;;;;;;;1.53;91.82;99708.29;1724809;83;21007;-46
2022/12/05 00:30:13;;;;;;;29.67;16.87;;;;;;;1.39;91.98;99708.88;1724944;82;21007;-42
2022/12/05 00:32:38;;;;;;;29.57;16.37;;;;;;;1.48;91.76;99717.39;1724771;83;21434;-42
2022/12/05 00:35:05;;;;;;;30.55;17.35;;;;;;;1.46;91.84;99706.64;1724795;83;20987;-38
2022/12/05 00:37:30;;;;;;;32.58;17.75;;;;;;;1.43;91.92;99712.70;1724811;82;21007;-45
2022/12/05 00:39:56;;;;;;;27.82;15.93;;;;;;;1.49;91.63;99711.35;1724855;83;21488;-38
2022/12/05 00:42:22;;;;;;;26.97;16.00;;;;;;;1.49;91.53;99711.35;1724866;82;20979;-42
2022/12/05 00:44:49;;;;;;;28.87;16.82;;;;;;;1.52;91.58;99706.11;1724784;82;21054;-37
2022/12/05 00:47:15;;;;;;;23.55;13.98;;;;;;;1.58;91.28;99703.87;1722619;83;21898;-41
2022/12/05 00:49:41;;;;;;;29.12;15.85;;;;;;;1.39;91.23;99708.88;1701885;84;20995;-37
2022/12/05 00:52:07;;;;;;;25.52;14.90;;;;;;;1.53;91.40;99713.47;1701793;83;21018;-40
2022/12/05 00:54:33;;;;;;;24.72;14.85;;;;;;;1.44;91.29;99706.66;1701802;84;21003;-43
2022/12/05 00:56:58;;;;;;;24.75;14.53;;;;;;;1.46;91.24;99701.45;1701784;83;20979;-39
2022/12/05 00:59:24;;;;;;;26.97;14.68;;;;;;;1.30;91.52;99695.58;1701786;84;20998;-44
2022/12/05 01:01:51;;;;;;;22.00;13.85;;;;;;;1.33;91.48;99689.08;1701755;84;21002;-40
2022/12/05 01:04:22;;;;;;;23.00;15.32;;;;;;;1.38;91.50;99685.97;1701921;84;20999;-37
2022/12/05 01:06:48;;;;;;;23.92;14.93;;;;;;;1.29;91.23;99688.25;1701830;84;21049;-43
2022/12/05 01:09:18;;;;;;;23.27;14.27;;;;;;;1.32;91.41;99684.76;1702177;84;20987;-41
2022/12/05 01:11:45;;;;;;;29.30;15.80;;;;;;;1.24;91.48;99681.41;1701815;84;21464;-39
2022/12/05 01:14:14;;;;;;;25.40;14.95;;;;;;;1.24;91.67;99680.12;1701836;84;20998;-44
2022/12/05 01:16:42;;;;;;;24.02;15.68;;;;;;;1.33;91.71;99678.27;1701759;84;21895;-43
2022/12/05 01:19:13;;;;;;;29.87;15.78;;;;;;;1.33;91.74;99683.90;1701798;84;21000;-50
2022/12/05 01:21:39;;;;;;;26.07;14.85;;;;;;;1.36;91.67;99687.73;1701888;84;21047;-39
2022/12/05 01:24:06;;;;;;;26.70;15.13;;;;;;;1.40;91.59;99683.37;1701813;84;21453;-40
2022/12/05 01:26:31;;;;;;;29.63;16.67;;;;;;;1.38;91.39;99679.50;1702031;84;21532;-42
2022/12/05 01:28:57;;;;;;;28.07;16.55;;;;;;;1.38;91.39;99679.50;1701774;84;20979;-39
2022/12/05 01:31:28;;;;;;;23.42;14.75;;;;;;;1.44;91.61;99682.03;1701872;84;20998;-38
2022/12/05 01:33:57;;;;;;;24.07;15.20;;;;;;;1.43;91.42;99689.82;1701269;84;21038;-45
2022/12/05 01:36:24;;;;;;;26.23;15.43;;;;;;;1.34;91.52;99687.73;1701838;84;20975;-45
2022/12/05 01:38:50;;;;;;;22.80;14.33;;;;;;;1.36;91.41;99682.98;1701912;84;21485;-40
2022/12/05 01:41:21;;;;;;;23.17;15.37;;;;;;;1.38;91.41;99689.01;1702034;84;21002;-44
2022/12/05 01:44:14;;;;;;;28.40;16.02;;;;;;;1.46;91.20;99688.50;1701756;84;20984;-37
2022/12/05 01:46:51;;;;;;;25.75;16.10;;;;;;;1.37;91.39;99690.75;1701723;84;21598;-41
2022/12/05 01:49:20;;;;;;;27.20;15.50;;;;;;;1.33;91.35;99680.86;1700795;83;21026;-42
2022/12/05 01:51:53;;;;;;;26.93;16.17;;;;;;;1.33;91.45;99673.09;1701803;84;21002;-48
2022/12/05 01:54:21;;;;;;;27.80;15.25;;;;;;;1.42;91.48;99678.61;1701857;84;21043;-43
2022/12/05 01:56:58;;;;;;;28.12;15.65;;;;;;;1.38;91.45;99671.72;1701757;84;21535;-47
2022/12/05 01:59:28;;;;;;;31.05;16.37;;;;;;;1.42;91.41;99668.66;1700458;84;21567;-46
2022/12/05 02:01:54;;;;;;;27.32;16.50;;;;;;;1.48;91.22;99678.52;1701885;84;20991;-38
2022/12/05 02:04:20;;;;;;;30.17;15.98;;;;;;;1.47;91.20;99673.35;1701698;84;20999;-43
2022/12/05 02:06:46;;;;;;;30.50;17.12;;;;;;;1.46;91.17;99662.58;1701731;84;21030;-41
2022/12/05 02:09:12;;;;;;;27.13;15.83;;;;;;;1.49;91.09;99667.29;1701802;83;20975;-44
2022/12/05 02:11:50;;;;;;;28.40;16.55;;;;;;;1.46;91.21;99666.02;1701720;83;21022;-44
2022/12/05 02:14:33;;;;;;;29.35;15.80;;;;;;;1.52;90.95;99659.91;1701704;84;21002;-39
2022/12/05 02:17:19;;;;;;;30.15;16.55;;;;;;;1.52;90.85;99673.71;1701516;83;20999;-44
2022/12/05 02:20:15;;;;;;;25.37;15.10;;;;;;;1.50;90.78;99673.32;1702013;84;20975;-38
2022/12/05 02:23:13;;;;;;;29.25;15.43;;;;;;;1.53;90.64;99675.44;1701437;83;20999;-39
2022/12/05 02:26:02;;;;;;;27.15;16.77;;;;;;;1.47;91.02;99676.79;1701818;84;20999;-41
2022/12/05 02:29:04;;;;;;;29.00;15.78;;;;;;;1.45;90.89;99670.77;1701746;84;20983;-40
2022/12/05 02:31:38;;;;;;;31.93;15.72;;;;;;;1.53;91.08;99661.19;1700934;84;20968;-38
2022/12/05 02:34:21;;;;;;;33.23;17.55;;;;;;;1.58;90.88;99665.00;1701373;84;21002;-40
2022/12/05 02:37:04;;;;;;;31.97;16.60;;;;;;;1.61;90.63;99666.71;1701718;84;21003;-39
2022/12/05 02:40:02;;;;;;;26.17;15.65;;;;;;;1.62;90.48;99643.78;1701319;84;20995;-36
2022/12/05 02:43:53;;;;;;;31.17;17.52;;;;;;;1.60;90.11;99642.53;1800688;79;22919;-38
2022/12/05 02:46:23;;;;;;;35.35;17.87;;;;;;;1.50;90.38;99640.48;1760905;80;21011;-43
2022/12/05 02:48:54;;;;;;;30.23;17.23;;;;;;;1.45;90.67;99637.08;1761979;80;20982;-39
2022/12/05 02:51:24;;;;;;;33.70;17.67;;;;;;;1.43;90.82;99640.13;1761877;81;21007;-42
2022/12/05 02:53:51;;;;;;;26.12;15.23;;;;;;;1.40;90.91;99637.60;1761853;81;20994;-39
2022/12/05 02:56:17;;;;;;;28.45;16.42;;;;;;;1.32;91.03;99631.64;1762010;81;21460;-45
2022/12/05 02:58:51;;;;;;;33.40;16.55;;;;;;;1.26;91.18;99635.17;1762034;80;20991;-45
2022/12/05 03:01:23;;;;;;;28.90;16.23;;;;;;;1.24;91.27;99636.08;1761830;81;21038;-41
2022/12/05 03:03:49;;;;;;;33.60;17.02;;;;;;;1.21;91.37;99627.88;1761892;81;20981;-46
2022/12/05 03:06:24;;;;;;;40.95;22.25;;;;;;;1.09;91.55;99627.60;1761896;81;21857;-41
2022/12/05 03:09:09;;;;;;;39.08;19.98;;;;;;;1.27;91.73;99626.95;1761336;80;20963;-44
2022/12/05 03:11:46;;;;;;;28.80;16.40;;;;;;;1.31;91.68;99624.73;1761823;81;21480;-41
2022/12/05 03:14:15;;;;;;;;;;;;;;;1.26;91.72;99617.48;1763522;81;20986;-44
2022/12/05 03:16:46;;;;;;;25.57;15.30;;;;;;;1.23;91.73;99620.09;1761871;80;20100;-41
2022/12/05 03:19:26;;;;;;;27.48;16.42;;;;;;;1.22;91.78;99624.43;1761868;81;21054;-43
2022/12/05 03:22:04;;;;;;;27.00;15.90;;;;;;;1.31;91.80;99615.66;1761859;80;21034;-40
2022/12/05 03:24:30;;;;;;;;;;;;;;;1.28;91.92;99616.57;1764245;81;21512;-41
2022/12/05 03:27:42;;;;;;;30.12;16.57;;;;;;;1.27;91.78;99620.47;1762080;81;20112;-46
2022/12/05 03:30:12;;;;;;;26.12;14.50;;;;;;;1.29;91.63;99621.30;1761883;81;21464;-40
2022/12/05 03:33:02;;;;;;;28.27;15.58;;;;;;;1.27;91.84;99621.77;1759916;80;20999;-40
2022/12/05 03:35:46;;;;;;;38.60;18.32;;;;;;;1.15;91.74;99617.61;1761822;80;20987;-45
2022/12/05 03:38:20;;;;;;;29.98;16.12;;;;;;;1.24;91.99;99621.83;1761825;81;20999;-40
2022/12/05 03:40:56;;;;;;;34.10;16.45;;;;;;;1.18;92.06;99616.70;1761682;81;21010;-44
2022/12/05 03:43:45;;;;;;;31.73;17.90;;;;;;;1.21;92.07;99618.81;1750109;81;21501;-38
2022/12/05 03:46:25;;;;;;;34.23;16.93;;;;;;;1.19;92.12;99618.42;1748734;81;21031;-45
2022/12/05 03:49:05;;;;;;;32.58;17.27;;;;;;;1.17;92.63;99624.06;1748604;81;21000;-38
2022/12/05 03:51:37;;;;;;;33.78;17.70;;;;;;;1.20;92.49;99624.01;1748676;81;20988;-43
2022/12/05 03:54:23;;;;;;;31.37;17.77;;;;;;;1.26;92.27;99627.84;1747945;81;20984;-45
2022/12/05 03:57:03;;;;;;;34.63;17.20;;;;;;;1.30;92.09;99641.17;1748370;81;21000;-45
2022/12/05 03:59:46;;;;;;;45.70;20.88;;;;;;;1.12;91.95;99639.64;1748219;82;21075;-41
2022/12/05 04:02:23;;;;;;;46.92;22.65;;;;;;;1.12;92.34;99639.20;1746777;81;20995;-45
2022/12/05 04:05:09;;;;;;;44.03;23.12;;;;;;;1.15;92.76;99650.83;1748319;81;20991;-40
2022/12/05 04:07:38;;;;;;;36.98;19.12;;;;;;;1.15;92.53;99649.53;1748121;81;20995;-44
2022/12/05 04:10:12;;;;;;;30.43;17.35;;;;;;;1.07;93.05;99651.34;1748190;81;20995;-40
2022/12/05 04:12:40;;;;;;;37.40;19.07;;;;;;;1.06;93.40;99656.12;1748150;81;21536;-41
2022/12/05 04:15:12;;;;;;;39.55;19.82;;;;;;;1.17;93.24;99652.56;1748188;81;20999;-44
2022/12/05 04:17:59;;;;;;;35.88;18.00;;;;;;;1.22;93.12;99649.45;1747845;81;20991;-46
2022/12/05 04:23:24;;;;;;;34.95;18.27;;;;;;;1.18;92.88;99652.52;1748110;82;21023;-45
2022/12/05 04:25:58;;;;;;;38.90;19.12;;;;;;;1.22;92.85;99646.45;1748152;81;20996;-52
2022/12/05 04:28:48;;;;;;;40.25;20.02;;;;;;;1.23;93.06;99644.27;1748086;81;21023;-42
2022/12/05 04:31:19;;;;;;;35.55;18.80;;;;;;;1.11;93.08;99649.57;1748132;81;20983;-47
2022/12/05 04:33:56;;;;;;;35.10;17.62;;;;;;;1.14;93.21;99648.25;1748189;81;21008;-37
2022/12/05 04:36:31;;;;;;;37.10;19.60;;;;;;;1.16;93.31;99640.02;1746524;81;21011;-42
2022/12/05 04:39:10;;;;;;;42.48;19.37;;;;;;;1.21;93.38;99647.76;1748286;81;20988;-42
2022/12/05 04:41:47;;;;;;;32.58;17.95;;;;;;;1.27;93.05;99632.12;1748672;81;21031;-45
2022/12/05 04:44:18;;;;;;;39.23;19.95;;;;;;;1.27;93.00;99634.72;1761708;81;20988;-42
2022/12/05 04:46:46;;;;;;;36.58;19.02;;;;;;;1.26;93.15;99638.20;1761513;81;21523;-46
2022/12/05 04:49:17;;;;;;;33.67;16.35;;;;;;;1.20;93.15;99640.84;1761437;81;21035;-44
2022/12/05 04:51:46;;;;;;;39.40;18.17;;;;;;;1.23;93.18;99646.00;1761583;81;20960;-46
2022/12/05 04:54:29;;;;;;;40.70;19.25;;;;;;;1.18;93.42;99642.60;1761423;81;20995;-42
2022/12/05 04:57:00;;;;;;;39.85;18.82;;;;;;;1.18;93.59;99652.96;1761473;81;20999;-40
2022/12/05 04:59:26;;;;;;;33.80;17.67;;;;;;;1.25;93.44;99650.73;1761234;81;21034;-38
2022/12/05 05:01:56;;;;;;;41.45;19.40;;;;;;;1.19;93.48;99645.18;1761488;81;21003;-40
2022/12/05 05:04:36;;;;;;;39.15;19.92;;;;;;;1.25;93.30;99645.09;1761546;81;21007;-40
2022/12/05 05:07:09;;;;;;;35.90;18.52;;;;;;;1.28;93.32;99650.25;1760852;80;21538;-42
2022/12/05 05:09:36;;;;;;;39.53;19.87;;;;;;;1.29;93.31;99645.92;1760781;81;21504;-45
2022/12/05 05:12:03;;;;;;;37.45;19.35;;;;;;;1.39;93.13;99646.23;1761570;80;20991;-42
2022/12/05 05:14:29;;;;;;;37.87;18.07;;;;;;;1.35;93.12;99636.80;1761684;81;21322;-44
2022/12/05 05:16:55;;;;;;;37.20;17.82;;;;;;;1.39;93.11;99644.95;1761439;81;21722;-42
2022/12/05 05:19:21;;;;;;;31.10;17.40;;;;;;;1.42;92.96;99644.03;1761461;81;21003;-46
2022/12/05 05:21:47;;;;;;;41.58;20.00;;;;;;;1.37;92.84;99644.11;1761407;81;20995;-43
2022/12/05 05:24:14;;;;;;;40.38;19.95;;;;;;;1.40;92.99;99638.90;1761479;81;21449;-43
2022/12/05 05:26:42;;;;;;;37.13;18.50;;;;;;;1.40;93.11;99640.20;1761509;81;20991;-40
2022/12/05 05:29:09;;;;;;;42.25;20.00;;;;;;;1.46;92.96;99636.22;1761422;80;21531;-46
2022/12/05 05:31:36;;;;;;;40.48;19.70;;;;;;;1.51;92.76;99634.43;1761637;81;21034;-44
2022/12/05 05:34:03;;;;;;;48.87;21.57;;;;;;;1.52;92.65;99628.35;1761625;81;20976;-45
2022/12/05 05:36:31;;;;;;;40.50;20.25;;;;;;;1.53;92.59;99624.89;1761621;81;20991;-47
2022/12/05 05:38:58;;;;;;;;;;;;;;;1.57;92.39;99632.64;1764108;81;20964;-39
2022/12/05 05:41:26;;;;;;;;;;;;;;;1.51;92.50;99617.58;1764029;81;20421;-43
2022/12/05 05:43:53;;;;;;;42.08;20.57;;;;;;;1.35;92.52;99617.36;1761448;80;20397;-45
2022/12/05 05:46:23;;;;;;;42.13;19.30;;;;;;;1.47;92.81;99617.18;1761423;81;21059;-42
2022/12/05 05:48:49;;;;;;;43.68;20.70;;;;;;;1.38;92.73;99616.45;1761478;81;20979;-43
2022/12/05 05:51:16;;;;;;;38.00;19.30;;;;;;;1.42;92.69;99619.00;1761402;81;21003;-40
2022/12/05 05:53:43;;;;;;;40.00;20.20;;;;;;;1.50;92.71;99615.86;1761549;80;21481;-43
2022/12/05 05:56:13;;;;;;;36.45;19.02;;;;;;;1.57;92.70;99622.27;1761426;81;21007;-41
2022/12/05 05:58:40;;;;;;;36.65;18.82;;;;;;;1.60;92.33;99618.32;1761460;81;21003;-45
2022/12/05 06:01:16;;;;;;;42.05;19.12;;;;;;;1.51;92.33;99620.17;1744450;81;21014;-46
2022/12/05 06:03:43;;;;;;;39.67;19.75;;;;;;;1.51;92.26;99625.36;1761837;81;21007;-45
2022/12/05 06:06:13;;;;;;;47.25;20.57;;;;;;;1.48;92.29;99627.13;1761759;81;21433;-40
2022/12/05 06:08:41;;;;;;;39.73;18.75;;;;;;;1.40;92.76;99623.35;1761426;81;20995;-44
2022/12/05 06:11:14;;;;;;;45.88;19.07;;;;;;;1.46;92.72;99614.19;1761430;81;21029;-39
2022/12/05 06:13:40;;;;;;;35.75;18.52;;;;;;;1.48;92.68;99616.77;1760435;81;20987;-42
2022/12/05 06:16:09;;;;;;;37.23;19.20;;;;;;;1.49;92.79;99614.58;1720083;81;21030;-40
2022/12/05 06:18:35;;;;;;;40.70;19.35;;;;;;;1.46;92.65;99615.48;1761410;80;20995;-40
2022/12/05 06:21:01;;;;;;;39.38;19.73;;;;;;;1.50;92.60;99612.41;1761384;80;21523;-46
2022/12/05 06:23:27;;;;;;;39.42;18.95;;;;;;;1.50;92.59;99611.12;1761508;81;21802;-43
2022/12/05 06:25:55;;;;;;;37.25;19.25;;;;;;;1.45;92.87;99612.46;1761400;81;20971;-45
2022/12/05 06:28:24;;;;;;;41.18;18.92;;;;;;;1.48;92.79;99605.95;1761443;81;20947;-41
2022/12/05 06:30:50;;;;;;;39.45;19.48;;;;;;;1.51;92.64;99600.73;1761499;81;21034;-43
2022/12/05 06:33:17;;;;;;;41.85;18.90;;;;;;;1.56;92.69;99602.40;1761663;81;21022;-37
2022/12/05 06:35:43;;;;;;;36.58;18.50;;;;;;;1.57;92.56;99606.27;1761500;81;21016;-39
2022/12/05 06:38:09;;;;;;;30.70;17.77;;;;;;;1.58;92.14;99605.83;1761527;81;21476;-40
2022/12/05 06:40:42;;;;;;;39.73;20.13;;;;;;;1.51;92.47;99614.98;1761729;81;20960;-39
2022/12/05 06:43:08;;;;;;;38.00;18.57;;;;;;;1.51;92.31;99624.06;1755180;81;21592;-39
2022/12/05 06:45:37;;;;;;;39.30;17.65;;;;;;;1.48;92.46;99616.31;1737920;82;20960;-43
2022/12/05 06:48:03;;;;;;;39.53;18.35;;;;;;;1.48;92.56;99608.55;1747947;81;21027;-41
2022/12/05 06:50:29;;;;;;;37.25;17.32;;;;;;;1.47;92.53;99602.08;1748079;82;21024;-43
2022/12/05 06:52:54;;;;;;;39.20;17.42;;;;;;;1.52;92.54;99608.91;1748264;81;21099;-37
2022/12/05 06:55:20;;;;;;;35.20;18.45;;;;;;;1.49;92.54;99602.91;1748081;81;21039;-41
2022/12/05 06:57:46;;;;;;;33.63;17.77;;;;;;;1.52;92.44;99610.66;1737617;82;21027;-44
2022/12/05 07:02:42;;;;;;;37.20;17.50;;;;;;;1.65;92.27;99604.86;1722404;81;21513;-39
2022/12/05 07:05:09;;;;;;;31.30;15.03;;;;;;;1.63;92.06;99604.03;1748094;82;20980;-41
2022/12/05 07:07:35;;;;;;;34.15;16.87;;;;;;;1.32;92.29;99603.14;1748392;81;21015;-44
2022/12/05 07:10:02;;;;;;;33.15;16.65;;;;;;;1.47;92.46;99604.22;1748030;81;21022;-42
2022/12/05 07:12:28;;;;;;;30.48;16.42;;;;;;;1.50;92.40;99606.78;1748368;81;20991;-45
2022/12/05 07:14:53;;;;;;;42.98;17.80;;;;;;;1.54;92.31;99614.93;1748105;81;21462;-45
2022/12/05 07:17:20;;;;;;;29.02;15.88;;;;;;;1.60;92.38;99613.14;1748122;81;21019;-41
2022/12/05 07:19:51;;;;;;;34.90;16.50;;;;;;;1.59;92.07;99607.55;1748201;82;20979;-40
2022/12/05 07:22:21;;;;;;;29.50;17.05;;;;;;;1.49;92.20;99605.50;1748012;81;20992;-42
2022/12/05 07:24:47;;;;;;;33.42;18.32;;;;;;;1.58;92.24;99625.27;1748056;81;20996;-38
2022/12/05 07:27:14;;;;;;;34.83;17.23;;;;;;;1.58;92.34;99618.34;1737542;82;21020;-43
2022/12/05 07:29:40;;;;;;;34.23;17.67;;;;;;;1.53;92.30;99616.27;1748367;81;20995;-48
2022/12/05 07:32:06;;;;;;;34.80;17.05;;;;;;;1.60;92.33;99614.02;1748277;81;21616;-38
2022/12/05 07:34:32;;;;;;;34.90;18.02;;;;;;;1.63;92.08;99609.22;1748209;81;21478;-41
2022/12/05 07:36:59;;;;;;;36.83;17.75;;;;;;;1.65;92.05;99603.56;1748162;82;21015;-46
2022/12/05 07:39:26;;;;;;;34.60;16.77;;;;;;;1.58;92.07;99612.30;1748310;82;21006;-41
2022/12/05 07:41:52;;;;;;;43.40;16.20;;;;;;;1.68;91.92;99608.27;1748380;81;21595;-44
2022/12/05 07:44:17;;;;;;;39.30;17.95;;;;;;;1.73;91.80;99608.22;1748037;81;21447;-40
2022/12/05 07:46:43;;;;;;;42.73;20.37;;;;;;;1.75;91.79;99603.87;1748194;81;21008;-44
2022/12/05 07:49:09;;;;;;;60.05;28.50;;;;;;;1.64;91.83;99610.95;1748194;81;20976;-42
2022/12/05 07:51:35;;;;;;;39.85;19.75;;;;;;;1.61;92.07;99609.23;1748176;81;20991;-40
2022/12/05 07:54:02;;;;;;;35.03;17.27;;;;;;;1.61;92.07;99609.23;1748198;81;21474;-39
2022/12/05 07:56:27;;;;;;;31.15;16.75;;;;;;;1.66;92.00;99619.55;1748193;81;20992;-43
2022/12/05 07:58:53;;;;;;;36.42;16.95;;;;;;;1.64;91.93;99613.54;1748091;82;21023;-37
2022/12/05 08:01:24;;;;;;;31.42;16.62;;;;;;;1.56;92.10;99611.47;1748150;82;20988;-37
2022/12/05 08:03:53;;;;;;;38.28;17.80;;;;;;;1.65;92.05;99613.48;1748233;81;21476;-37
2022/12/05 08:06:22;;;;;;;36.60;17.85;;;;;;;1.65;92.16;99611.34;1745973;81;20988;-38
2022/12/05 08:08:49;;;;;;;37.13;17.90;;;;;;;1.73;92.27;99610.36;1737557;81;21039;-41
2022/12/05 08:11:20;;;;;;;36.35;18.65;;;;;;;1.82;92.10;99610.68;1724478;82;20979;-42
2022/12/05 08:13:47;;;;;;;37.25;18.95;;;;;;;1.85;92.04;99605.88;1731123;81;21005;-37
2022/12/05 08:16:17;;;;;;;34.33;17.27;;;;;;;1.89;91.77;99596.74;1706970;83;21544;-46
2022/12/05 08:18:44;;;;;;;34.45;16.87;;;;;;;1.92;91.61;99597.97;1717915;82;21155;-44
2022/12/05 08:21:16;;;;;;;34.40;16.85;;;;;;;1.87;91.41;99602.40;1718265;82;20996;-42
2022/12/05 08:23:44;;;;;;;32.90;16.32;;;;;;;1.76;91.47;99602.13;1717953;82;21071;-42
2022/12/05 08:26:16;;;;;;;;;;;;;;;1.71;91.67;99608.23;1726278;82;20975;-41
2022/12/05 08:28:42;;;;;;;32.75;16.30;;;;;;;1.75;91.79;99610.34;1746042;82;20111;-39
2022/12/05 08:31:13;;;;;;;38.50;17.60;;;;;;;1.65;91.94;99603.56;1745781;82;21031;-41
2022/12/05 08:33:39;;;;;;;30.82;15.58;;;;;;;1.79;92.02;99595.61;1745577;82;20999;-41
2022/12/05 08:36:08;;;;;;;36.55;17.55;;;;;;;1.77;92.36;99602.11;1741652;81;21034;-48
2022/12/05 08:38:34;;;;;;;34.58;17.17;;;;;;;1.83;92.31;99595.97;1747443;81;21560;-42
2022/12/05 08:41:03;;;;;;;35.83;16.62;;;;;;;1.86;91.84;99595.94;1746859;82;21031;-44
2022/12/05 08:43:30;;;;;;;41.45;19.27;;;;;;;1.83;91.95;99592.92;1747062;80;21028;-41
2022/12/05 08:45:57;;;;;;;40.37;20.57;;;;;;;1.80;91.83;99592.99;1747032;81;21326;-44
2022/12/05 08:48:24;;;;;;;29.93;17.40;;;;;;;1.89;91.76;99588.96;1748081;81;20972;-40
2022/12/05 08:50:50;;;;;;;33.55;17.82;;;;;;;1.68;92.09;99595.31;1747006;81;21673;-42
2022/12/05 08:53:16;;;;;;;33.08;17.35;;;;;;;1.72;92.53;99590.94;1747872;81;21004;-43
2022/12/05 08:55:42;;;;;;;36.73;18.35;;;;;;;1.74;92.44;99602.14;1747338;81;21000;-41
2022/12/05 08:58:08;;;;;;;67.10;31.02;;;;;;;1.77;92.48;99598.66;1747779;81;20988;-46
2022/12/05 09:00:34;;;;;;;68.62;28.80;;;;;;;1.81;92.39;99601.17;1747797;81;21026;-45
2022/12/05 09:03:00;;;;;;;53.87;26.10;;;;;;;1.82;92.54;99600.72;1747180;82;21051;-41
2022/12/05 09:05:26;;;;;;;39.73;19.02;;;;;;;1.77;92.69;99605.99;1746042;81;21047;-43
2022/12/05 09:07:52;;;;;;;34.23;18.35;;;;;;;1.81;92.76;99605.52;1747536;81;20987;-42
2022/12/05 09:10:18;;;;;;;35.48;19.02;;;;;;;1.88;92.64;99601.50;1747638;82;21023;-49
2022/12/05 09:12:44;;;;;;;43.30;20.57;;;;;;;1.95;92.61;99606.58;1741194;81;21019;-45
2022/12/05 09:15:11;;;;;;;38.83;18.32;;;;;;;2.01;92.47;99596.13;1731291;82;21055;-44
2022/12/05 09:17:38;;;;;;;34.55;18.30;;;;;;;2.02;92.23;99583.56;1746225;81;21674;-41
2022/12/05 09:20:10;;;;;;;35.23;17.47;;;;;;;2.02;92.06;99590.05;1746975;81;20979;-40
2022/12/05 09:22:35;;;;;;;36.23;17.75;;;;;;;1.97;92.08;99593.18;1746612;81;21027;-42
2022/12/05 09:25:01;;;;;;;38.65;19.02;;;;;;;2.00;92.13;99589.22;1741878;81;21496;-42
2022/12/05 09:27:27;;;;;;;37.78;18.67;;;;;;;2.10;92.17;99584.31;1717339;82;21011;-41
2022/12/05 09:29:53;;;;;;;31.80;17.00;;;;;;;2.12;91.98;99592.92;1717839;82;20999;-40
2022/12/05 09:32:19;;;;;;;39.58;17.57;;;;;;;2.11;91.89;99597.27;1736441;82;21027;-44
2022/12/05 09:34:45;;;;;;;38.30;17.55;;;;;;;2.15;92.21;99594.18;1747452;81;20984;-39
2022/12/05 09:37:11;;;;;;;34.83;18.30;;;;;;;2.02;92.00;99583.56;1724811;82;21003;-47
2022/12/05 09:39:37;;;;;;;47.43;24.23;;;;;;;2.14;92.08;99591.16;1717838;82;21512;-45
2022/12/05 09:42:36;;;;;;;37.98;17.82;;;;;;;2.15;91.94;99586.81;1717699;83;21544;-41
2022/12/05 09:45:28;;;;;;;39.92;19.48;;;;;;;2.07;91.91;99577.45;1729359;82;21071;-40
2022/12/05 09:48:15;;;;;;;44.75;21.07;;;;;;;2.13;92.12;99581.67;1731067;82;21015;-39
2022/12/05 09:50:58;;;;;;;36.73;18.50;;;;;;;2.20;92.19;99570.31;1731147;83;21038;-38
2022/12/05 09:53:33;;;;;;;40.40;20.27;;;;;;;2.21;91.99;99564.68;1730655;82;21004;-47
2022/12/05 09:56:25;;;;;;;39.75;19.87;;;;;;;2.14;91.92;99570.40;1733852;81;21039;-42
2022/12/05 09:58:54;;;;;;;42.40;21.65;;;;;;;2.19;92.14;99569.89;1750033;81;21528;-42
2022/12/05 10:02:13;;;;;;;41.68;19.57;;;;;;;2.28;91.95;99567.59;1758950;81;20981;-42
2022/12/05 10:04:45;;;;;;;43.50;20.00;;;;;;;2.15;91.72;99560.88;1760396;81;21457;-39
2022/12/05 10:07:34;;;;;;;37.70;18.70;;;;;;;2.20;91.76;99569.02;1759659;81;21002;-39
2022/12/05 10:10:33;;;;;;;42.98;20.05;;;;;;;2.25;91.67;99566.33;1760513;81;21092;-40
2022/12/05 10:13:24;;;;;;;51.48;24.50;;;;;;;2.26;91.70;99563.72;1760396;81;20990;-43
2022/12/05 10:15:58;;;;;;;44.83;21.77;;;;;;;2.29;91.81;99558.90;1760595;81;21430;-39
2022/12/05 10:18:37;;;;;;;47.03;22.27;;;;;;;2.23;91.90;99552.08;1759668;81;21465;-40
2022/12/05 10:21:11;;;;;;;45.12;22.87;;;;;;;2.32;91.66;99555.41;1759922;81;21448;-43
2022/12/05 10:23:57;;;;;;;45.10;21.00;;;;;;;2.27;91.65;99552.47;1760182;81;21037;-40
2022/12/05 10:26:33;;;;;;;48.38;25.40;;;;;;;2.26;91.72;99557.67;1759004;81;20932;-41
2022/12/05 10:29:22;;;;;;;44.75;22.77;;;;;;;2.39;91.88;99554.42;1760199;81;21031;-40
2022/12/05 10:31:51;;;;;;;43.05;21.68;;;;;;;2.47;91.78;99557.72;1760952;81;21348;-38
2022/12/05 10:34:40;;;;;;;44.23;22.93;;;;;;;2.34;91.35;99556.24;1760926;81;21422;-44
2022/12/05 10:37:19;;;;;;;44.18;23.00;;;;;;;2.39;91.35;99542.75;1760938;81;20971;-41
2022/12/05 10:39:46;;;;;;;45.58;22.32;;;;;;;2.38;91.29;99535.37;1760883;81;21022;-43
2022/12/05 10:42:31;;;;;;;;;;;;;;;2.45;91.29;99549.11;1763479;81;20991;-42
2022/12/05 10:45:04;;;;;;;45.67;23.77;;;;;;;2.46;91.26;99541.75;1738077;82;20105;-43
2022/12/05 10:47:31;;;;;;;45.83;22.50;;;;;;;2.49;91.15;99533.89;1755546;81;21015;-42
2022/12/05 10:50:08;;;;;;;42.30;23.03;;;;;;;2.44;91.24;99531.39;1748368;81;20975;-42
2022/12/05 10:52:35;;;;;;;47.80;24.80;;;;;;;2.42;91.27;99527.97;1724674;82;20968;-38
2022/12/05 10:55:05;;;;;;;44.65;23.18;;;;;;;2.43;91.40;99529.66;1741896;81;20995;-42
2022/12/05 10:57:31;;;;;;;47.85;23.67;;;;;;;2.47;91.25;99526.16;1755840;80;20975;-44
2022/12/05 11:00:01;;;;;;;48.40;24.60;;;;;;;2.50;91.23;99521.34;1754931;82;20941;-41
2022/12/05 11:02:30;;;;;;;42.65;23.12;;;;;;;2.51;91.19;99511.38;1751873;82;21461;-43
2022/12/05 11:04:58;;;;;;;47.70;23.67;;;;;;;2.54;91.03;99522.98;1748889;82;21870;-45
2022/12/05 11:07:35;;;;;;;42.30;22.45;;;;;;;2.54;91.10;99520.84;1753394;81;20994;-41
2022/12/05 11:10:07;;;;;;;44.73;22.87;;;;;;;2.54;91.15;99517.79;1751582;82;20951;-45
2022/12/05 11:12:37;;;;;;;51.28;26.27;;;;;;;2.55;91.00;99511.73;1752016;81;20979;-40
2022/12/05 11:15:26;;;;;;;53.20;28.65;;;;;;;2.52;91.06;99510.48;1752946;82;20944;-44
2022/12/05 11:17:56;;;;;;;57.40;31.77;;;;;;;2.49;91.09;99518.31;1750308;82;20968;-41
2022/12/05 11:20:28;;;;;;;61.95;35.48;;;;;;;2.58;91.12;99517.29;1752533;82;21475;-45
2022/12/05 11:22:56;;;;;;;52.20;28.65;;;;;;;2.57;91.20;99506.51;1755489;80;21457;-41
2022/12/05 11:25:30;;;;;;;52.20;27.20;;;;;;;2.58;91.08;99505.61;1749086;82;20959;-45
2022/12/05 11:27:59;;;;;;;49.10;26.42;;;;;;;2.55;90.99;99496.56;1752038;82;21509;-42
2022/12/05 11:30:32;;;;;;;50.35;26.17;;;;;;;2.57;91.14;99503.46;1752807;81;20948;-41
2022/12/05 11:33:21;;;;;;;51.53;26.12;;;;;;;2.55;91.29;99501.34;1748781;81;20956;-47
2022/12/05 11:35:49;;;;;;;51.63;25.70;;;;;;;2.52;91.36;99505.28;1755765;82;20955;-43
2022/12/05 11:38:18;;;;;;;49.27;25.35;;;;;;;2.54;91.49;99503.51;1750657;82;21453;-47
2022/12/05 11:40:55;;;;;;;50.48;26.10;;;;;;;2.58;91.39;99503.86;1753937;82;20964;-47
2022/12/05 11:44:06;;;;;;;51.65;25.70;;;;;;;2.56;91.48;99496.99;1742555;81;20932;-45
2022/12/05 11:46:49;;;;;;;59.73;29.10;;;;;;;2.56;91.54;99504.33;1716106;81;21429;-38
2022/12/05 11:50:01;;;;;;;49.60;26.12;;;;;;;2.71;91.32;99495.83;1714397;81;21382;-41
2022/12/05 11:52:37;;;;;;;65.70;31.90;;;;;;;2.76;91.34;99496.15;1749526;81;20975;-43
2022/12/05 11:55:28;;;;;;;61.90;31.80;;;;;;;2.84;91.09;99493.42;1759403;81;20971;-41